| time (UTC) | temp C | wind direction | speed KPH | gust KPH | rain 1hr cm | rain 24hr cm | rain mn cm | humidity % | barometer mb |
| 20260507154545 | 21 | 275 | 1.6 | 8.0 | 0.00 | 0.00 | 0.00 | 44 | 1003.0 |
| 20260507153045 | 20 | 178 | 4.8 | 14.5 | 0.00 | 0.00 | 0.00 | 47 | 1003.1 |
| 20260507151540 | 20 | 197 | 3.2 | 12.9 | 0.00 | 0.00 | 0.00 | 47 | 1003.2 |
| 20260507150040 | 19 | 259 | 4.8 | 22.5 | 0.00 | 0.00 | 0.00 | 50 | 1003.4 |
| 20260507144536 | 20 | 214 | 9.7 | 25.7 | 0.00 | 0.00 | 0.00 | 49 | 1003.3 |
| 20260507143037 | 20 | 224 | 3.2 | 11.3 | 0.00 | 0.00 | 0.00 | 48 | 1003.6 |
| 20260507141533 | 20 | 287 | 6.4 | 19.3 | 0.00 | 0.00 | 0.00 | 47 | 1003.7 |
| 20260507140032 | 19 | 257 | 4.8 | 16.1 | 0.00 | 0.00 | 0.00 | 46 | 1003.8 |
| 20260507134516 | 19 | 193 | 3.2 | 14.5 | 0.00 | 0.00 | 0.00 | 46 | 1003.9 |
| 20260507133018 | 18 | 247 | 3.2 | 14.5 | 0.00 | 0.00 | 0.00 | 51 | 1003.9 |
| 20260507131519 | 18 | 265 | 3.2 | 12.9 | 0.00 | 0.00 | 0.00 | 47 | 1003.9 |
| 20260507130027 | 20 | 148 | 6.4 | 17.7 | 0.00 | 0.00 | 0.00 | 44 | 1004.0 |
| 20260507124520 | 20 | 276 | 6.4 | 17.7 | 0.00 | 0.00 | 0.00 | 45 | 1004.1 |
| 20260507123013 | 19 | 236 | 3.2 | 19.3 | 0.00 | 0.00 | 0.00 | 45 | 1004.2 |
| 20260507121511 | 19 | 298 | 4.8 | 16.1 | 0.00 | 0.00 | 0.00 | 43 | 1004.5 |
| 20260507120011 | 19 | 204 | 0.0 | 8.0 | 0.00 | 0.00 | 0.00 | 48 | 1004.8 |
| 20260507114502 | 18 | 221 | 0.0 | 9.7 | 0.00 | 0.00 | 0.00 | 52 | 1005.1 |
| 20260507113102 | 17 | 77 | 0.0 | 9.7 | 0.00 | 0.00 | 0.00 | 53 | 1005.2 |
| 20260507111559 | 17 | 100 | 4.8 | 16.1 | 0.00 | 0.00 | 0.00 | 55 | 1005.2 |
| 20260507110056 | 17 | 102 | 1.6 | 8.0 | 0.00 | 0.00 | 0.00 | 57 | 1005.2 |
| 20260507104555 | 17 | 187 | 0.0 | 8.0 | 0.00 | 0.00 | 0.00 | 55 | 1005.2 |
| 20260507103054 | 17 | 223 | 4.8 | 9.7 | 0.00 | 0.00 | 0.00 | 55 | 1005.1 |
| 20260507101554 | 17 | 190 | 3.2 | 8.0 | 0.00 | 0.00 | 0.00 | 58 | 1005.2 |
| 20260507100024 | 15 | 196 | 0.0 | 3.2 | 0.00 | 0.00 | 0.00 | 64 | 1005.3 |
| 20260507094514 | 14 | 175 | 0.0 | 11.3 | 0.00 | 0.00 | 0.00 | 67 | 1005.5 |
| 20260507093011 | 15 | 107 | 4.8 | 11.3 | 0.00 | 0.00 | 0.00 | 61 | 1005.6 |
| 20260507091510 | 15 | 330 | 0.0 | 0.0 | 0.00 | 0.00 | 0.00 | 61 | 1005.5 |
| 20260507090009 | 15 | 330 | 0.0 | 0.0 | 0.00 | 0.00 | 0.00 | 62 | 1005.3 |
| 20260507084509 | 15 | 330 | 0.0 | 4.8 | 0.00 | 0.00 | 0.00 | 61 | 1005.2 |
| 20260507083006 | 15 | 329 | 0.0 | 4.8 | 0.00 | 0.00 | 0.00 | 62 | 1005.2 |
| 20260507081502 | 14 | 329 | 1.6 | 8.0 | 0.00 | 0.00 | 0.00 | 63 | 1005.1 |
| 20260507080002 | 13 | 329 | 0.0 | 6.4 | 0.00 | 0.00 | 0.00 | 64 | 1005.2 |
| 20260507074500 | 13 | 329 | 1.6 | 4.8 | 0.00 | 0.00 | 0.00 | 65 | 1005.2 |
| 20260507073058 | 13 | 329 | 3.2 | 6.4 | 0.00 | 0.00 | 0.00 | 65 | 1005.3 |
| 20260507071611 | 13 | 77 | 0.0 | 0.0 | 0.00 | 0.00 | 0.00 | 66 | 1005.2 |
| 20260507070057 | 12 | 77 | 0.0 | 0.0 | 0.00 | 0.00 | 0.00 | 70 | 1005.1 |
| 20260507064556 | 12 | 77 | 0.0 | 4.8 | 0.00 | 0.00 | 0.00 | 70 | 1004.9 |
| 20260507063025 | 11 | 101 | 3.2 | 12.9 | 0.00 | 0.00 | 0.00 | 71 | 1004.8 |
| 20260507061524 | 11 | 130 | 8.0 | 14.5 | 0.00 | 0.00 | 0.00 | 73 | 1004.6 |
| 20260507060019 | 11 | 89 | 3.2 | 8.0 | 0.00 | 0.00 | 0.00 | 73 | 1004.6 |
| 20260507054519 | 10 | 96 | 3.2 | 8.0 | 0.00 | 0.00 | 0.00 | 74 | 1004.6 |
| 20260507053017 | 10 | 105 | 3.2 | 11.3 | 0.00 | 0.00 | 0.00 | 74 | 1004.3 |
| 20260507051527 | 10 | 115 | 1.6 | 6.4 | 0.00 | 0.00 | 0.00 | 74 | 1004.2 |
| 20260507050014 | 10 | 119 | 3.2 | 6.4 | 0.00 | 0.00 | 0.00 | 74 | 1004.1 |
| 20260507044513 | 10 | 113 | 0.0 | 6.4 | 0.00 | 0.00 | 0.00 | 74 | 1004.0 |
| 20260507043012 | 10 | 81 | 0.0 | 6.4 | 0.00 | 0.00 | 0.00 | 73 | 1004.0 |
| 20260507041509 | 10 | 95 | 3.2 | 9.7 | 0.00 | 0.00 | 0.00 | 72 | 1004.1 |
| 20260507040039 | 11 | 108 | 0.0 | 9.7 | 0.00 | 0.00 | 0.00 | 72 | 1004.2 |
| 20260507034540 | 11 | 105 | 1.6 | 11.3 | 0.00 | 0.00 | 0.00 | 71 | 1004.1 |
| 20260507033013 | 11 | 100 | 1.6 | 8.0 | 0.00 | 0.00 | 0.00 | 70 | 1004.1 |
| 20260507031503 | 11 | 96 | 0.0 | 8.0 | 0.00 | 0.00 | 0.00 | 69 | 1004.1 |
| 20260507030101 | 11 | 96 | 0.0 | 4.8 | 0.00 | 0.00 | 0.00 | 69 | 1004.1 |
| 20260507024605 | 11 | 87 | 1.6 | 4.8 | 0.00 | 0.00 | 0.00 | 68 | 1003.9 |
| 20260507023057 | 12 | 86 | 0.0 | 3.2 | 0.00 | 0.00 | 0.00 | 67 | 1003.9 |
| 20260507021555 | 12 | 86 | 1.6 | 9.7 | 0.00 | 0.00 | 0.00 | 66 | 1003.8 |
| 20260507020050 | 12 | 106 | 3.2 | 8.0 | 0.00 | 0.00 | 0.00 | 65 | 1003.8 |
| 20260507014554 | 13 | 346 | 0.0 | 3.2 | 0.00 | 0.00 | 0.00 | 62 | 1004.1 |
| 20260507013048 | 13 | 346 | 0.0 | 0.0 | 0.00 | 0.00 | 0.00 | 59 | 1004.1 |
| 20260507011542 | 13 | 346 | 0.0 | 3.2 | 0.00 | 0.00 | 0.00 | 59 | 1004.2 |
| 20260507010037 | 14 | 346 | 0.0 | 1.6 | 0.00 | 0.00 | 0.00 | 58 | 1004.3 |
| 20260507004539 | 14 | 346 | 0.0 | 6.4 | 0.00 | 0.00 | 0.00 | 58 | 1004.3 |
| 20260507003035 | 14 | 346 | 0.0 | 3.2 | 0.00 | 0.00 | 0.00 | 57 | 1004.4 |
| 20260507001540 | 14 | 346 | 1.6 | 6.4 | 0.00 | 0.00 | 0.00 | 57 | 1004.4 |
| 20260507000032 | 15 | 37 | 1.6 | 8.0 | 0.00 | 0.00 | 0.00 | 57 | 1004.7 |
| 20260506234531 | 15 | 346 | 0.0 | 6.4 | 0.00 | 0.00 | 0.00 | 58 | 1004.7 |
| 20260506233030 | 15 | 321 | 0.0 | 3.2 | 0.00 | 0.00 | 0.00 | 58 | 1004.6 |
| 20260506231530 | 15 | 38 | 0.0 | 6.4 | 0.00 | 0.00 | 0.00 | 58 | 1004.7 |
| 20260506230028 | 15 | 143 | 0.0 | 0.0 | 0.00 | 0.00 | 0.00 | 59 | 1004.6 |
| 20260506224528 | 15 | 143 | 0.0 | 3.2 | 0.00 | 0.00 | 0.00 | 57 | 1004.6 |
| 20260506223027 | 15 | 152 | 0.0 | 6.4 | 0.00 | 0.00 | 0.00 | 57 | 1004.7 |
| 20260506221526 | 15 | 162 | 3.2 | 11.3 | 0.00 | 0.00 | 0.00 | 56 | 1004.7 |
| 20260506220034 | 15 | 200 | 1.6 | 11.3 | 0.00 | 0.00 | 0.00 | 56 | 1004.8 |
| 20260506214527 | 15 | 208 | 1.6 | 8.0 | 0.00 | 0.00 | 0.00 | 58 | 1004.8 |
| 20260506213028 | 16 | 194 | 1.6 | 8.0 | 0.00 | 0.00 | 0.00 | 55 | 1004.7 |
| 20260506211522 | 16 | 190 | 0.0 | 8.0 | 0.00 | 0.00 | 0.00 | 48 | 1004.6 |
| 20260506210023 | 16 | 184 | 1.6 | 16.1 | 0.00 | 0.00 | 0.00 | 44 | 1004.5 |
| 20260506204553 | 16 | 198 | 1.6 | 6.4 | 0.00 | 0.00 | 0.00 | 44 | 1004.1 |
| 20260506203052 | 16 | 136 | 0.0 | 0.0 | 0.00 | 0.00 | 0.00 | 45 | 1003.9 |
| 20260506201521 | 16 | 101 | 0.0 | 8.0 | 0.00 | 0.00 | 0.00 | 45 | 1003.7 |
| 20260506200022 | 17 | 181 | 0.0 | 8.0 | 0.00 | 0.00 | 0.00 | 46 | 1003.6 |
| 20260506194517 | 17 | 113 | 3.2 | 11.3 | 0.00 | 0.00 | 0.00 | 47 | 1003.2 |
| 20260506193016 | 18 | 221 | 3.2 | 11.3 | 0.00 | 0.00 | 0.00 | 47 | 1003.0 |
| 20260506191516 | 18 | 181 | 1.6 | 9.7 | 0.00 | 0.00 | 0.00 | 46 | 1002.8 |
| 20260506190023 | 18 | 222 | 4.8 | 9.7 | 0.00 | 0.00 | 0.00 | 45 | 1002.8 |
| 20260506184549 | 18 | 196 | 3.2 | 9.7 | 0.00 | 0.00 | 0.00 | 45 | 1002.7 |
| 20260506183051 | 19 | 96 | 4.8 | 12.9 | 0.00 | 0.00 | 0.00 | 45 | 1002.7 |
| 20260506181553 | 19 | 159 | 1.6 | 14.5 | 0.00 | 0.00 | 0.00 | 42 | 1002.8 |
| 20260506180100 | 20 | 152 | 3.2 | 11.3 | 0.00 | 0.00 | 0.00 | 41 | 1002.7 |
| 20260506174540 | 20 | 190 | 0.0 | 12.9 | 0.00 | 0.00 | 0.00 | 41 | 1002.7 |
| 20260506173045 | 20 | 242 | 6.4 | 11.3 | 0.00 | 0.00 | 0.00 | 40 | 1002.6 |
| 20260506171537 | 20 | 244 | 1.6 | 17.7 | 0.00 | 0.00 | 0.00 | 40 | 1002.6 |
| 20260506170037 | 21 | 221 | 4.8 | 14.5 | 0.00 | 0.00 | 0.00 | 38 | 1002.6 |
| 20260506164536 | 22 | 194 | 1.6 | 14.5 | 0.00 | 0.00 | 0.00 | 37 | 1002.5 |
| 20260506163038 | 22 | 173 | 3.2 | 12.9 | 0.00 | 0.00 | 0.00 | 36 | 1002.5 |
| 20260506161536 | 22 | 125 | 3.2 | 12.9 | 0.00 | 0.00 | 0.00 | 36 | 1002.5 |
| 20260506160036 | 22 | 240 | 0.0 | 12.9 | 0.00 | 0.00 | 0.00 | 37 | 1002.6 |